sensor_id;sensor_type;location;lat;lon;timestamp;pressure;altitude;pressure_sealevel;temperature;humidity
74336;BME280;62755;-33.398;-70.572;2023-04-06T00:02:45;93099.03;;;25.30;28.11
74336;BME280;62755;-33.398;-70.572;2023-04-06T00:05:34;93102.56;;;25.25;28.15
74336;BME280;62755;-33.398;-70.572;2023-04-06T00:08:25;93101.03;;;25.35;28.21
74336;BME280;62755;-33.398;-70.572;2023-04-06T00:11:14;93104.53;;;25.41;28.25
74336;BME280;62755;-33.398;-70.572;2023-04-06T00:14:04;93093.06;;;25.26;27.90
74336;BME280;62755;-33.398;-70.572;2023-04-06T00:16:55;93099.13;;;25.08;28.31
74336;BME280;62755;-33.398;-70.572;2023-04-06T00:19:45;93105.13;;;25.01;28.30
74336;BME280;62755;-33.398;-70.572;2023-04-06T00:22:35;93098.66;;;25.04;27.87
74336;BME280;62755;-33.398;-70.572;2023-04-06T00:25:24;93112.34;;;25.09;28.28
74336;BME280;62755;-33.398;-70.572;2023-04-06T00:28:13;93113.59;;;25.03;28.18
74336;BME280;62755;-33.398;-70.572;2023-04-06T00:31:03;93110.13;;;24.97;28.35
74336;BME280;62755;-33.398;-70.572;2023-04-06T00:33:54;93108.66;;;24.85;28.23
74336;BME280;62755;-33.398;-70.572;2023-04-06T00:36:45;93113.16;;;24.55;27.64
74336;BME280;62755;-33.398;-70.572;2023-04-06T00:39:35;93123.09;;;24.69;27.43
74336;BME280;62755;-33.398;-70.572;2023-04-06T00:42:25;93123.38;;;24.43;27.64
74336;BME280;62755;-33.398;-70.572;2023-04-06T00:45:20;93117.38;;;24.56;27.43
74336;BME280;62755;-33.398;-70.572;2023-04-06T00:48:10;93131.84;;;24.73;27.57
74336;BME280;62755;-33.398;-70.572;2023-04-06T00:51:02;93095.66;;;24.69;27.25
74336;BME280;62755;-33.398;-70.572;2023-04-06T00:53:52;93118.38;;;24.86;27.24
74336;BME280;62755;-33.398;-70.572;2023-04-06T00:56:42;93106.94;;;24.76;27.71
74336;BME280;62755;-33.398;-70.572;2023-04-06T00:59:32;93109.16;;;24.78;27.85
74336;BME280;62755;-33.398;-70.572;2023-04-06T01:02:22;93114.38;;;24.87;27.56
74336;BME280;62755;-33.398;-70.572;2023-04-06T01:05:12;93104.66;;;24.75;27.75
74336;BME280;62755;-33.398;-70.572;2023-04-06T01:08:04;93098.91;;;24.67;27.22
74336;BME280;62755;-33.398;-70.572;2023-04-06T01:10:53;93100.94;;;24.56;27.27
74336;BME280;62755;-33.398;-70.572;2023-04-06T01:13:43;93107.66;;;24.66;27.46
74336;BME280;62755;-33.398;-70.572;2023-04-06T01:16:33;93104.19;;;24.26;28.47
74336;BME280;62755;-33.398;-70.572;2023-04-06T01:19:23;93112.88;;;24.41;28.46
74336;BME280;62755;-33.398;-70.572;2023-04-06T01:22:16;93099.69;;;24.12;28.41
74336;BME280;62755;-33.398;-70.572;2023-04-06T01:25:07;93112.41;;;24.21;28.66
74336;BME280;62755;-33.398;-70.572;2023-04-06T01:27:57;93108.16;;;24.31;28.29
74336;BME280;62755;-33.398;-70.572;2023-04-06T01:30:46;93113.38;;;24.12;28.46
74336;BME280;62755;-33.398;-70.572;2023-04-06T01:33:36;93107.16;;;24.17;28.54
74336;BME280;62755;-33.398;-70.572;2023-04-06T01:36:25;93108.66;;;24.18;28.40
74336;BME280;62755;-33.398;-70.572;2023-04-06T01:39:17;93097.94;;;24.31;28.21
74336;BME280;62755;-33.398;-70.572;2023-04-06T01:42:06;93089.97;;;24.28;28.67
74336;BME280;62755;-33.398;-70.572;2023-04-06T01:44:56;93086.22;;;24.14;28.76
74336;BME280;62755;-33.398;-70.572;2023-04-06T01:47:45;93087.75;;;24.15;28.91
74336;BME280;62755;-33.398;-70.572;2023-04-06T01:50:35;93087.47;;;24.19;29.09
74336;BME280;62755;-33.398;-70.572;2023-04-06T01:53:26;93091.72;;;24.14;29.27
74336;BME280;62755;-33.398;-70.572;2023-04-06T01:56:24;93072.28;;;24.12;29.11
74336;BME280;62755;-33.398;-70.572;2023-04-06T01:59:13;93081.50;;;24.26;29.01
74336;BME280;62755;-33.398;-70.572;2023-04-06T02:02:03;93078.75;;;24.31;28.82
74336;BME280;62755;-33.398;-70.572;2023-04-06T02:04:52;93079.50;;;24.21;29.18
74336;BME280;62755;-33.398;-70.572;2023-04-06T02:07:43;93077.50;;;24.16;29.33
74336;BME280;62755;-33.398;-70.572;2023-04-06T02:10:33;93077.75;;;24.12;29.40
74336;BME280;62755;-33.398;-70.572;2023-04-06T02:13:24;93074.53;;;24.30;29.72
74336;BME280;62755;-33.398;-70.572;2023-04-06T02:16:14;93076.28;;;24.22;29.42
74336;BME280;62755;-33.398;-70.572;2023-04-06T02:19:03;93087.69;;;23.93;29.85
74336;BME280;62755;-33.398;-70.572;2023-04-06T02:21:53;93092.59;;;23.67;30.11
74336;BME280;62755;-33.398;-70.572;2023-04-06T02:24:42;93083.34;;;23.42;30.83
74336;BME280;62755;-33.398;-70.572;2023-04-06T02:27:32;93090.28;;;23.38;30.37
74336;BME280;62755;-33.398;-70.572;2023-04-06T02:30:24;93091.31;;;23.51;30.53
74336;BME280;62755;-33.398;-70.572;2023-04-06T02:33:13;93089.06;;;23.50;30.51
74336;BME280;62755;-33.398;-70.572;2023-04-06T02:36:03;93085.59;;;23.55;30.40
74336;BME280;62755;-33.398;-70.572;2023-04-06T02:38:53;93089.59;;;23.65;30.35
74336;BME280;62755;-33.398;-70.572;2023-04-06T02:41:42;93095.53;;;23.47;30.59
74336;BME280;62755;-33.398;-70.572;2023-04-06T02:44:31;93098.97;;;23.36;30.57
74336;BME280;62755;-33.398;-70.572;2023-04-06T02:47:28;93096.50;;;23.33;30.74
74336;BME280;62755;-33.398;-70.572;2023-04-06T02:50:17;93098.00;;;23.45;30.76
74336;BME280;62755;-33.398;-70.572;2023-04-06T02:53:07;93107.22;;;23.47;30.37
74336;BME280;62755;-33.398;-70.572;2023-04-06T02:55:57;93110.03;;;23.64;30.30
74336;BME280;62755;-33.398;-70.572;2023-04-06T02:58:46;93109.06;;;23.78;30.15
74336;BME280;62755;-33.398;-70.572;2023-04-06T03:01:36;93114.50;;;23.67;30.34
74336;BME280;62755;-33.398;-70.572;2023-04-06T03:04:28;93105.56;;;23.72;30.30
74336;BME280;62755;-33.398;-70.572;2023-04-06T03:07:17;93107.97;;;23.48;29.70
74336;BME280;62755;-33.398;-70.572;2023-04-06T03:10:08;93114.84;;;23.27;29.40
74336;BME280;62755;-33.398;-70.572;2023-04-06T03:13:04;93122.72;;;23.14;29.14
74336;BME280;62755;-33.398;-70.572;2023-04-06T03:15:55;93104.28;;;23.03;29.13
74336;BME280;62755;-33.398;-70.572;2023-04-06T03:18:45;93117.50;;;23.16;28.73
74336;BME280;62755;-33.398;-70.572;2023-04-06T03:21:37;93119.69;;;23.01;28.45
74336;BME280;62755;-33.398;-70.572;2023-04-06T03:24:27;93124.41;;;23.00;28.37
74336;BME280;62755;-33.398;-70.572;2023-04-06T03:27:16;93114.00;;;23.10;27.65
74336;BME280;62755;-33.398;-70.572;2023-04-06T03:30:07;93118.47;;;23.07;28.08
74336;BME280;62755;-33.398;-70.572;2023-04-06T03:32:57;93096.03;;;22.98;28.94
74336;BME280;62755;-33.398;-70.572;2023-04-06T03:35:46;93105.22;;;22.95;30.01
74336;BME280;62755;-33.398;-70.572;2023-04-06T03:38:38;93101.59;;;23.14;30.00
74336;BME280;62755;-33.398;-70.572;2023-04-06T03:41:27;93104.88;;;23.24;30.24
74336;BME280;62755;-33.398;-70.572;2023-04-06T03:44:17;93106.88;;;23.29;29.78
74336;BME280;62755;-33.398;-70.572;2023-04-06T03:47:07;93120.31;;;23.27;29.59
74336;BME280;62755;-33.398;-70.572;2023-04-06T03:49:56;93114.22;;;23.01;30.17
74336;BME280;62755;-33.398;-70.572;2023-04-06T03:52:46;93109.78;;;23.09;30.58
74336;BME280;62755;-33.398;-70.572;2023-04-06T03:55:37;93101.25;;;22.96;31.42
74336;BME280;62755;-33.398;-70.572;2023-04-06T03:58:27;93101.31;;;23.07;31.54
74336;BME280;62755;-33.398;-70.572;2023-04-06T04:01:17;93089.34;;;22.99;32.16
74336;BME280;62755;-33.398;-70.572;2023-04-06T04:04:07;93088.94;;;22.75;32.51
74336;BME280;62755;-33.398;-70.572;2023-04-06T04:06:56;93095.38;;;22.66;32.52
74336;BME280;62755;-33.398;-70.572;2023-04-06T04:09:46;93094.50;;;22.54;32.42
74336;BME280;62755;-33.398;-70.572;2023-04-06T04:12:37;93086.16;;;22.63;32.40
74336;BME280;62755;-33.398;-70.572;2023-04-06T04:15:27;93090.47;;;22.76;32.16
74336;BME280;62755;-33.398;-70.572;2023-04-06T04:18:17;93081.25;;;22.79;32.19
74336;BME280;62755;-33.398;-70.572;2023-04-06T04:21:06;93086.69;;;22.73;32.19
74336;BME280;62755;-33.398;-70.572;2023-04-06T04:23:56;93081.88;;;22.94;32.20
74336;BME280;62755;-33.398;-70.572;2023-04-06T04:26:46;93063.91;;;22.82;32.16
74336;BME280;62755;-33.398;-70.572;2023-04-06T04:29:37;93087.78;;;22.92;32.29
74336;BME280;62755;-33.398;-70.572;2023-04-06T04:32:27;93086.38;;;23.08;32.16
74336;BME280;62755;-33.398;-70.572;2023-04-06T04:35:16;93085.59;;;22.96;32.19
74336;BME280;62755;-33.398;-70.572;2023-04-06T04:38:06;93093.00;;;22.90;32.03
74336;BME280;62755;-33.398;-70.572;2023-04-06T04:40:55;93094.16;;;22.73;32.29
74336;BME280;62755;-33.398;-70.572;2023-04-06T04:43:45;93106.66;;;22.48;31.35
74336;BME280;62755;-33.398;-70.572;2023-04-06T04:46:37;93102.31;;;22.36;29.86
74336;BME280;62755;-33.398;-70.572;2023-04-06T04:49:26;93112.41;;;22.55;30.01
74336;BME280;62755;-33.398;-70.572;2023-04-06T04:52:16;93116.31;;;22.49;29.60
74336;BME280;62755;-33.398;-70.572;2023-04-06T04:55:06;93108.72;;;22.27;29.73
74336;BME280;62755;-33.398;-70.572;2023-04-06T04:57:56;93108.19;;;22.23;29.78
74336;BME280;62755;-33.398;-70.572;2023-04-06T05:00:45;93121.03;;;22.17;29.79
74336;BME280;62755;-33.398;-70.572;2023-04-06T05:03:37;93110.50;;;22.30;29.56
74336;BME280;62755;-33.398;-70.572;2023-04-06T05:06:27;93112.53;;;22.41;29.83
74336;BME280;62755;-33.398;-70.572;2023-04-06T05:09:16;93115.44;;;22.57;29.96
74336;BME280;62755;-33.398;-70.572;2023-04-06T05:12:06;93108.28;;;22.65;29.91
74336;BME280;62755;-33.398;-70.572;2023-04-06T05:14:56;93091.09;;;22.59;29.60
74336;BME280;62755;-33.398;-70.572;2023-04-06T05:17:46;93102.66;;;22.49;29.86
74336;BME280;62755;-33.398;-70.572;2023-04-06T05:20:39;93107.34;;;22.74;29.74
74336;BME280;62755;-33.398;-70.572;2023-04-06T05:23:29;93106.59;;;22.74;29.34
74336;BME280;62755;-33.398;-70.572;2023-04-06T05:26:18;93110.16;;;22.91;29.27
74336;BME280;62755;-33.398;-70.572;2023-04-06T05:29:08;93097.09;;;22.63;29.37
74336;BME280;62755;-33.398;-70.572;2023-04-06T05:31:58;93082.53;;;22.46;29.80
74336;BME280;62755;-33.398;-70.572;2023-04-06T05:34:48;93095.06;;;22.58;30.04
74336;BME280;62755;-33.398;-70.572;2023-04-06T05:37:39;93099.97;;;22.54;29.88
74336;BME280;62755;-33.398;-70.572;2023-04-06T05:40:29;93104.41;;;22.46;30.00
74336;BME280;62755;-33.398;-70.572;2023-04-06T05:43:18;93103.88;;;22.42;30.17
74336;BME280;62755;-33.398;-70.572;2023-04-06T05:46:08;93097.09;;;22.32;30.01
74336;BME280;62755;-33.398;-70.572;2023-04-06T05:48:58;93087.38;;;22.31;29.71
74336;BME280;62755;-33.398;-70.572;2023-04-06T05:51:47;93095.41;;;22.40;29.85
74336;BME280;62755;-33.398;-70.572;2023-04-06T05:54:39;93086.69;;;22.36;29.89
74336;BME280;62755;-33.398;-70.572;2023-04-06T05:57:28;93090.00;;;22.51;30.28
74336;BME280;62755;-33.398;-70.572;2023-04-06T06:00:18;93073.63;;;22.51;30.33
74336;BME280;62755;-33.398;-70.572;2023-04-06T06:03:08;93079.16;;;22.62;29.73
74336;BME280;62755;-33.398;-70.572;2023-04-06T06:06:00;93060.22;;;22.53;29.61
74336;BME280;62755;-33.398;-70.572;2023-04-06T06:08:50;93052.81;;;22.23;30.26
74336;BME280;62755;-33.398;-70.572;2023-04-06T06:11:41;93074.44;;;22.26;29.72
74336;BME280;62755;-33.398;-70.572;2023-04-06T06:14:31;93063.94;;;22.19;29.87
74336;BME280;62755;-33.398;-70.572;2023-04-06T06:17:20;93065.44;;;22.20;30.32
74336;BME280;62755;-33.398;-70.572;2023-04-06T06:20:11;93068.69;;;22.19;30.83
74336;BME280;62755;-33.398;-70.572;2023-04-06T06:23:00;93066.78;;;22.30;31.61
74336;BME280;62755;-33.398;-70.572;2023-04-06T06:25:50;93060.84;;;22.37;31.27
74336;BME280;62755;-33.398;-70.572;2023-04-06T06:28:42;93061.84;;;22.03;30.88
74336;BME280;62755;-33.398;-70.572;2023-04-06T06:31:31;93063.88;;;21.82;31.09
74336;BME280;62755;-33.398;-70.572;2023-04-06T06:34:21;93062.47;;;21.67;30.90
74336;BME280;62755;-33.398;-70.572;2023-04-06T06:37:10;93070.56;;;22.07;30.86
74336;BME280;62755;-33.398;-70.572;2023-04-06T06:40:00;93063.41;;;22.15;30.75
74336;BME280;62755;-33.398;-70.572;2023-04-06T06:42:50;93072.41;;;22.21;31.10
74336;BME280;62755;-33.398;-70.572;2023-04-06T06:45:41;93076.69;;;22.28;31.18
74336;BME280;62755;-33.398;-70.572;2023-04-06T06:48:31;93082.81;;;21.92;31.67
74336;BME280;62755;-33.398;-70.572;2023-04-06T06:51:20;93078.31;;;21.63;32.05
74336;BME280;62755;-33.398;-70.572;2023-04-06T06:54:10;93076.56;;;21.60;32.49
74336;BME280;62755;-33.398;-70.572;2023-04-06T06:57:00;93078.50;;;21.34;32.44
74336;BME280;62755;-33.398;-70.572;2023-04-06T06:59:49;93092.53;;;21.47;32.51
74336;BME280;62755;-33.398;-70.572;2023-04-06T07:02:41;93088.88;;;21.30;32.51
74336;BME280;62755;-33.398;-70.572;2023-04-06T07:05:30;93087.66;;;21.11;33.17
74336;BME280;62755;-33.398;-70.572;2023-04-06T07:08:20;93096.25;;;21.24;33.17
74336;BME280;62755;-33.398;-70.572;2023-04-06T07:11:10;93088.34;;;21.26;33.41
74336;BME280;62755;-33.398;-70.572;2023-04-06T07:13:59;93084.47;;;21.58;32.78
74336;BME280;62755;-33.398;-70.572;2023-04-06T07:16:49;93086.69;;;21.79;32.69
74336;BME280;62755;-33.398;-70.572;2023-04-06T07:19:41;93075.94;;;21.76;32.51
74336;BME280;62755;-33.398;-70.572;2023-04-06T07:22:30;93083.56;;;21.92;32.42
74336;BME280;62755;-33.398;-70.572;2023-04-06T07:25:20;93082.38;;;21.73;32.71
74336;BME280;62755;-33.398;-70.572;2023-04-06T07:28:09;93071.47;;;21.73;32.92
74336;BME280;62755;-33.398;-70.572;2023-04-06T07:30:59;93080.59;;;21.70;32.81
74336;BME280;62755;-33.398;-70.572;2023-04-06T07:33:49;93080.88;;;21.72;32.88
74336;BME280;62755;-33.398;-70.572;2023-04-06T07:36:40;93076.69;;;21.51;33.24
74336;BME280;62755;-33.398;-70.572;2023-04-06T07:39:30;93073.69;;;21.49;33.33
74336;BME280;62755;-33.398;-70.572;2023-04-06T07:42:20;93078.63;;;21.45;33.25
74336;BME280;62755;-33.398;-70.572;2023-04-06T07:45:10;93078.91;;;21.27;33.77
74336;BME280;62755;-33.398;-70.572;2023-04-06T07:48:00;93080.97;;;21.32;33.72
74336;BME280;62755;-33.398;-70.572;2023-04-06T07:50:49;93085.59;;;21.26;33.85
74336;BME280;62755;-33.398;-70.572;2023-04-06T07:53:41;93074.94;;;20.87;34.29
74336;BME280;62755;-33.398;-70.572;2023-04-06T07:56:30;93076.56;;;20.99;34.58
74336;BME280;62755;-33.398;-70.572;2023-04-06T07:59:20;93088.22;;;21.15;34.40
74336;BME280;62755;-33.398;-70.572;2023-04-06T08:02:10;93081.38;;;21.25;34.10
74336;BME280;62755;-33.398;-70.572;2023-04-06T08:04:59;93071.63;;;21.18;33.61
74336;BME280;62755;-33.398;-70.572;2023-04-06T08:07:49;93072.75;;;20.91;34.09
74336;BME280;62755;-33.398;-70.572;2023-04-06T08:10:40;93073.66;;;20.83;33.75
74336;BME280;62755;-33.398;-70.572;2023-04-06T08:13:30;93053.13;;;20.87;34.22
74336;BME280;62755;-33.398;-70.572;2023-04-06T08:16:19;93064.06;;;21.08;34.69
74336;BME280;62755;-33.398;-70.572;2023-04-06T08:19:09;93074.44;;;21.04;34.32
74336;BME280;62755;-33.398;-70.572;2023-04-06T08:21:58;93062.00;;;20.82;34.51
74336;BME280;62755;-33.398;-70.572;2023-04-06T08:24:48;93073.66;;;20.83;34.50
74336;BME280;62755;-33.398;-70.572;2023-04-06T08:27:40;93074.94;;;20.87;34.43
74336;BME280;62755;-33.398;-70.572;2023-04-06T08:30:30;93054.50;;;20.57;34.38
74336;BME280;62755;-33.398;-70.572;2023-04-06T08:33:19;93059.88;;;20.52;34.65
74336;BME280;62755;-33.398;-70.572;2023-04-06T08:36:10;93075.25;;;20.55;34.47
74336;BME280;62755;-33.398;-70.572;2023-04-06T08:39:00;93088.91;;;20.75;34.45
74336;BME280;62755;-33.398;-70.572;2023-04-06T08:41:50;93087.34;;;20.88;34.58
74336;BME280;62755;-33.398;-70.572;2023-04-06T08:44:45;93074.22;;;20.87;34.48
74336;BME280;62755;-33.398;-70.572;2023-04-06T08:47:36;93077.34;;;21.00;34.29
74336;BME280;62755;-33.398;-70.572;2023-04-06T08:50:25;93080.91;;;21.06;33.91
74336;BME280;62755;-33.398;-70.572;2023-04-06T08:53:16;93082.03;;;20.99;34.66
74336;BME280;62755;-33.398;-70.572;2023-04-06T08:56:08;93090.91;;;20.94;34.79
74336;BME280;62755;-33.398;-70.572;2023-04-06T08:58:59;93088.25;;;21.00;34.01
74336;BME280;62755;-33.398;-70.572;2023-04-06T09:01:52;93080.50;;;21.13;34.46
74336;BME280;62755;-33.398;-70.572;2023-04-06T09:04:42;93082.03;;;20.99;34.17
74336;BME280;62755;-33.398;-70.572;2023-04-06T09:07:32;93066.69;;;20.82;35.04
74336;BME280;62755;-33.398;-70.572;2023-04-06T09:10:22;93085.69;;;20.76;34.75
74336;BME280;62755;-33.398;-70.572;2023-04-06T09:13:12;93091.28;;;20.87;34.75
74336;BME280;62755;-33.398;-70.572;2023-04-06T09:16:03;93096.75;;;20.87;34.70
74336;BME280;62755;-33.398;-70.572;2023-04-06T09:18:54;93099.56;;;20.93;34.04
74336;BME280;62755;-33.398;-70.572;2023-04-06T09:22:02;93085.44;;;20.94;33.64
74336;BME280;62755;-33.398;-70.572;2023-04-06T09:24:54;93105.50;;;21.12;33.56
74336;BME280;62755;-33.398;-70.572;2023-04-06T09:27:43;93097.72;;;21.25;33.16
74336;BME280;62755;-33.398;-70.572;2023-04-06T09:30:33;93109.59;;;21.22;33.65
74336;BME280;62755;-33.398;-70.572;2023-04-06T09:33:24;93114.31;;;21.21;33.31
74336;BME280;62755;-33.398;-70.572;2023-04-06T09:36:15;93113.41;;;21.10;34.12
74336;BME280;62755;-33.398;-70.572;2023-04-06T09:39:05;93112.31;;;21.02;34.42
74336;BME280;62755;-33.398;-70.572;2023-04-06T09:41:55;93125.28;;;21.07;34.32
74336;BME280;62755;-33.398;-70.572;2023-04-06T09:44:44;93110.50;;;20.78;34.87
74336;BME280;62755;-33.398;-70.572;2023-04-06T09:47:36;93122.88;;;20.59;35.77
74336;BME280;62755;-33.398;-70.572;2023-04-06T09:50:27;93117.34;;;20.54;35.31
74336;BME280;62755;-33.398;-70.572;2023-04-06T09:53:19;93116.97;;;20.46;34.92
74336;BME280;62755;-33.398;-70.572;2023-04-06T09:56:12;93112.81;;;20.65;35.04
74336;BME280;62755;-33.398;-70.572;2023-04-06T09:59:11;93099.53;;;20.38;35.16
74336;BME280;62755;-33.398;-70.572;2023-04-06T10:02:05;93103.75;;;20.39;35.66
74336;BME280;62755;-33.398;-70.572;2023-04-06T10:05:01;93111.56;;;20.66;34.83
74336;BME280;62755;-33.398;-70.572;2023-04-06T10:07:55;93108.16;;;20.51;35.58
74336;BME280;62755;-33.398;-70.572;2023-04-06T10:10:48;93109.06;;;20.48;34.33
74336;BME280;62755;-33.398;-70.572;2023-04-06T10:13:38;93114.38;;;20.23;36.16
74336;BME280;62755;-33.398;-70.572;2023-04-06T10:16:29;93122.44;;;19.88;36.99
74336;BME280;62755;-33.398;-70.572;2023-04-06T10:19:24;93123.00;;;19.92;35.80
74336;BME280;62755;-33.398;-70.572;2023-04-06T10:22:21;93118.97;;;20.02;35.46
74336;BME280;62755;-33.398;-70.572;2023-04-06T10:25:13;93112.69;;;20.10;35.84
74336;BME280;62755;-33.398;-70.572;2023-04-06T10:28:06;93105.91;;;19.91;36.29
74336;BME280;62755;-33.398;-70.572;2023-04-06T10:31:00;93117.09;;;20.08;36.41
74336;BME280;62755;-33.398;-70.572;2023-04-06T10:33:55;93117.66;;;20.12;36.60
74336;BME280;62755;-33.398;-70.572;2023-04-06T10:36:44;93123.03;;;20.21;36.58
74336;BME280;62755;-33.398;-70.572;2023-04-06T10:39:34;93121.97;;;20.33;36.02
74336;BME280;62755;-33.398;-70.572;2023-04-06T10:42:25;93126.56;;;19.98;36.93
74336;BME280;62755;-33.398;-70.572;2023-04-06T10:45:23;93111.56;;;19.88;37.74
74336;BME280;62755;-33.398;-70.572;2023-04-06T10:48:16;93126.78;;;19.94;37.59
74336;BME280;62755;-33.398;-70.572;2023-04-06T10:51:09;93141.03;;;20.04;37.77
74336;BME280;62755;-33.398;-70.572;2023-04-06T10:54:00;93133.34;;;20.02;37.51
74336;BME280;62755;-33.398;-70.572;2023-04-06T10:56:50;93141.22;;;20.15;37.78
74336;BME280;62755;-33.398;-70.572;2023-04-06T10:59:43;93140.94;;;19.84;38.76
74336;BME280;62755;-33.398;-70.572;2023-04-06T11:02:35;93134.22;;;19.56;39.00
74336;BME280;62755;-33.398;-70.572;2023-04-06T11:05:25;93134.59;;;19.49;39.47
74336;BME280;62755;-33.398;-70.572;2023-04-06T11:08:25;93134.72;;;19.69;39.29
74336;BME280;62755;-33.398;-70.572;2023-04-06T11:11:17;93120.56;;;19.65;39.52
74336;BME280;62755;-33.398;-70.572;2023-04-06T11:14:10;93115.31;;;19.76;39.15
74336;BME280;62755;-33.398;-70.572;2023-04-06T11:17:00;93133.88;;;19.77;39.29
74336;BME280;62755;-33.398;-70.572;2023-04-06T11:19:51;93131.28;;;19.83;39.39
74336;BME280;62755;-33.398;-70.572;2023-04-06T11:22:51;93130.16;;;20.04;38.80
74336;BME280;62755;-33.398;-70.572;2023-04-06T11:25:51;93110.91;;;19.78;38.98
74336;BME280;62755;-33.398;-70.572;2023-04-06T11:28:41;93120.09;;;19.81;39.34
74336;BME280;62755;-33.398;-70.572;2023-04-06T11:31:31;93122.00;;;19.37;40.13
74336;BME280;62755;-33.398;-70.572;2023-04-06T11:34:21;93125.69;;;19.24;40.62
74336;BME280;62755;-33.398;-70.572;2023-04-06T11:37:13;93134.56;;;18.87;41.02
74336;BME280;62755;-33.398;-70.572;2023-04-06T11:40:03;93110.91;;;18.78;40.82
74336;BME280;62755;-33.398;-70.572;2023-04-06T11:42:57;93132.25;;;18.94;41.19
74336;BME280;62755;-33.398;-70.572;2023-04-06T11:45:47;93124.38;;;19.20;40.11
74336;BME280;62755;-33.398;-70.572;2023-04-06T11:48:45;93146.03;;;19.29;40.39
74336;BME280;62755;-33.398;-70.572;2023-04-06T11:51:36;93137.31;;;19.25;40.29
74336;BME280;62755;-33.398;-70.572;2023-04-06T11:54:38;93123.81;;;19.30;40.60
74336;BME280;62755;-33.398;-70.572;2023-04-06T11:57:28;93137.16;;;19.67;39.84
74336;BME280;62755;-33.398;-70.572;2023-04-06T12:00:19;93134.00;;;19.83;40.01
74336;BME280;62755;-33.398;-70.572;2023-04-06T12:03:09;93143.47;;;19.73;40.40
74336;BME280;62755;-33.398;-70.572;2023-04-06T12:05:59;93145.91;;;19.71;40.45
74336;BME280;62755;-33.398;-70.572;2023-04-06T12:08:48;93145.31;;;19.67;39.77
74336;BME280;62755;-33.398;-70.572;2023-04-06T12:11:40;93135.06;;;19.62;39.99
74336;BME280;62755;-33.398;-70.572;2023-04-06T12:14:30;93145.50;;;19.78;39.95
74336;BME280;62755;-33.398;-70.572;2023-04-06T12:17:21;93138.78;;;19.88;38.91
74336;BME280;62755;-33.398;-70.572;2023-04-06T12:20:11;93134.84;;;19.89;39.52
74336;BME280;62755;-33.398;-70.572;2023-04-06T12:23:01;93137.44;;;19.83;40.06
74336;BME280;62755;-33.398;-70.572;2023-04-06T12:25:51;93140.47;;;20.00;39.75
74336;BME280;62755;-33.398;-70.572;2023-04-06T12:28:43;93134.28;;;20.14;39.63
74336;BME280;62755;-33.398;-70.572;2023-04-06T12:31:34;93135.59;;;20.33;39.45
74336;BME280;62755;-33.398;-70.572;2023-04-06T12:34:26;93142.25;;;20.47;38.50
74336;BME280;62755;-33.398;-70.572;2023-04-06T12:37:16;93146.78;;;20.70;39.94
74336;BME280;62755;-33.398;-70.572;2023-04-06T12:40:06;93148.81;;;20.89;38.20
74336;BME280;62755;-33.398;-70.572;2023-04-06T12:42:57;93147.97;;;20.83;37.29
74336;BME280;62755;-33.398;-70.572;2023-04-06T12:45:50;93140.91;;;20.91;38.22
74336;BME280;62755;-33.398;-70.572;2023-04-06T12:48:40;93144.13;;;20.90;37.62
74336;BME280;62755;-33.398;-70.572;2023-04-06T12:51:29;93151.53;;;21.04;37.01
74336;BME280;62755;-33.398;-70.572;2023-04-06T12:54:19;93160.19;;;21.03;36.02
74336;BME280;62755;-33.398;-70.572;2023-04-06T12:57:09;93155.97;;;21.22;36.73
74336;BME280;62755;-33.398;-70.572;2023-04-06T12:59:59;93161.16;;;21.20;36.17
74336;BME280;62755;-33.398;-70.572;2023-04-06T13:02:50;93165.25;;;21.30;36.23
74336;BME280;62755;-33.398;-70.572;2023-04-06T13:05:44;93167.19;;;21.09;36.06
74336;BME280;62755;-33.398;-70.572;2023-04-06T13:08:34;93175.31;;;21.04;36.49
74336;BME280;62755;-33.398;-70.572;2023-04-06T13:11:25;93173.16;;;21.28;36.07
74336;BME280;62755;-33.398;-70.572;2023-04-06T13:14:16;93178.56;;;21.42;36.34
74336;BME280;62755;-33.398;-70.572;2023-04-06T13:17:05;93181.63;;;21.30;36.38
74336;BME280;62755;-33.398;-70.572;2023-04-06T13:19:57;93169.63;;;21.42;36.10
74336;BME280;62755;-33.398;-70.572;2023-04-06T13:22:47;93175.16;;;21.47;36.41
74336;BME280;62755;-33.398;-70.572;2023-04-06T13:25:36;93178.63;;;21.48;36.08
74336;BME280;62755;-33.398;-70.572;2023-04-06T13:28:26;93177.94;;;21.53;36.05
74336;BME280;62755;-33.398;-70.572;2023-04-06T13:31:16;93186.78;;;21.68;35.20
74336;BME280;62755;-33.398;-70.572;2023-04-06T13:34:05;93183.66;;;21.95;34.82
74336;BME280;62755;-33.398;-70.572;2023-04-06T13:36:57;93171.63;;;22.07;33.84
74336;BME280;62755;-33.398;-70.572;2023-04-06T13:39:46;93189.41;;;22.23;33.66
74336;BME280;62755;-33.398;-70.572;2023-04-06T13:42:36;93185.22;;;22.27;33.13
74336;BME280;62755;-33.398;-70.572;2023-04-06T13:45:27;93197.13;;;22.24;32.93
74336;BME280;62755;-33.398;-70.572;2023-04-06T13:48:17;93183.81;;;22.12;33.19
74336;BME280;62755;-33.398;-70.572;2023-04-06T13:51:10;93183.44;;;22.24;32.99
74336;BME280;62755;-33.398;-70.572;2023-04-06T13:54:01;93183.88;;;22.17;33.57
74336;BME280;62755;-33.398;-70.572;2023-04-06T13:56:52;93185.09;;;22.42;33.33
74336;BME280;62755;-33.398;-70.572;2023-04-06T13:59:43;93189.81;;;22.41;33.36
74336;BME280;62755;-33.398;-70.572;2023-04-06T14:02:32;93158.41;;;22.31;33.59
74336;BME280;62755;-33.398;-70.572;2023-04-06T14:05:22;93163.56;;;22.24;33.47
74336;BME280;62755;-33.398;-70.572;2023-04-06T14:08:13;93188.00;;;22.58;32.92
74336;BME280;62755;-33.398;-70.572;2023-04-06T14:11:04;93188.00;;;22.58;33.24
74336;BME280;62755;-33.398;-70.572;2023-04-06T14:13:55;93181.47;;;22.82;32.97
74336;BME280;62755;-33.398;-70.572;2023-04-06T14:16:44;93169.94;;;23.03;32.66
74336;BME280;62755;-33.398;-70.572;2023-04-06T14:19:34;93178.03;;;23.29;32.36
74336;BME280;62755;-33.398;-70.572;2023-04-06T14:22:23;93184.47;;;23.26;32.56
74336;BME280;62755;-33.398;-70.572;2023-04-06T14:25:12;93190.22;;;23.28;32.35
74336;BME280;62755;-33.398;-70.572;2023-04-06T14:28:04;93181.63;;;23.46;32.26
74336;BME280;62755;-33.398;-70.572;2023-04-06T14:30:54;93189.09;;;23.51;32.26